createdAt,value
2023-04-24T00:00:27.253Z,99677.50
2023-04-24T00:03:31.064Z,99685.63
2023-04-24T00:06:35.164Z,99679.28
2023-04-24T00:09:37.770Z,99664.09
2023-04-24T00:12:40.642Z,99656.34
2023-04-24T00:15:43.238Z,99651.09
2023-04-24T00:18:45.948Z,99650.16
2023-04-24T00:21:51.614Z,99654.31
2023-04-24T00:24:54.250Z,99643.66
2023-04-24T00:27:56.822Z,99635.78
2023-04-24T00:30:59.404Z,99647.81
2023-04-24T00:34:02.014Z,99645.94
2023-04-24T00:37:06.210Z,99642.75
2023-04-24T00:40:09.841Z,99644.13
2023-04-24T00:43:12.960Z,99635.66
2023-04-24T00:46:16.010Z,99635.38
2023-04-24T00:49:18.836Z,99628.00
2023-04-24T00:52:25.178Z,99630.06
2023-04-24T00:55:28.136Z,99624.66
2023-04-24T00:58:31.623Z,99634.34
2023-04-24T01:01:34.695Z,99627.06
2023-04-24T01:04:37.784Z,99622.13
2023-04-24T01:07:44.930Z,99619.84
2023-04-24T01:10:49.743Z,99621.28
2023-04-24T01:13:52.616Z,99622.13
2023-04-24T01:16:55.905Z,99620.94
2023-04-24T01:19:58.627Z,99623.41
2023-04-24T01:23:02.864Z,99631.22
2023-04-24T01:26:05.806Z,99631.22
2023-04-24T01:29:08.479Z,99627.06
2023-04-24T01:32:11.083Z,99614.13
2023-04-24T01:35:13.716Z,99619.00
2023-04-24T01:38:17.791Z,99615.16
2023-04-24T01:41:21.200Z,99610.84
2023-04-24T01:44:24.061Z,99600.72
2023-04-24T01:47:26.751Z,99605.84
2023-04-24T01:50:29.371Z,99604.88
2023-04-24T01:53:33.344Z,99604.97
2023-04-24T01:56:36.889Z,99595.03
2023-04-24T01:59:39.502Z,99593.31
2023-04-24T02:02:44.266Z,99597.72
2023-04-24T02:05:48.456Z,99585.81
2023-04-24T02:08:52.389Z,99588.50
2023-04-24T02:11:54.987Z,99587.00
2023-04-24T02:14:57.602Z,99587.56
2023-04-24T02:18:00.241Z,99586.31
2023-04-24T02:21:02.896Z,99594.59
2023-04-24T02:24:06.902Z,99585.34
2023-04-24T02:27:09.508Z,99596.63
2023-04-24T02:30:12.766Z,99603.69
2023-04-24T02:33:15.664Z,99604.72
2023-04-24T02:36:18.284Z,99610.19
2023-04-24T02:39:22.270Z,99611.66
2023-04-24T02:42:24.885Z,99601.84
2023-04-24T02:45:27.458Z,99594.06
2023-04-24T02:48:30.578Z,99590.56
2023-04-24T02:51:33.160Z,99587.28
2023-04-24T02:54:37.097Z,99590.56
2023-04-24T02:57:39.677Z,99594.06
2023-04-24T03:00:42.277Z,99586.09
2023-04-24T03:03:45.022Z,99585.91
2023-04-24T03:06:47.836Z,99593.16
2023-04-24T03:09:51.814Z,99595.03
2023-04-24T03:12:55.898Z,99595.03
2023-04-24T03:15:58.565Z,99592.06
2023-04-24T03:19:01.181Z,99583.44
2023-04-24T03:22:04.018Z,99582.47
2023-04-24T03:25:10.161Z,99587.38
2023-04-24T03:28:12.980Z,99583.34
2023-04-24T03:31:16.298Z,99580.16
2023-04-24T03:34:18.928Z,99581.84
2023-04-24T03:37:21.520Z,99577.59
2023-04-24T03:40:25.479Z,99581.22
2023-04-24T03:43:28.761Z,99580.34
2023-04-24T03:46:31.530Z,99579.19
2023-04-24T03:49:34.174Z,99575.56
2023-04-24T03:52:36.769Z,99580.47
2023-04-24T03:55:40.750Z,99586.09
2023-04-24T03:58:44.053Z,99584.81
2023-04-24T04:01:47.301Z,99574.41
2023-04-24T04:04:49.990Z,99579.31
2023-04-24T04:07:52.638Z,99588.88
2023-04-24T04:10:56.579Z,99574.81
2023-04-24T04:13:59.143Z,99581.19
2023-04-24T04:17:01.994Z,99581.19
2023-04-24T04:20:08.268Z,99579.69
2023-04-24T04:23:10.857Z,99583.53
2023-04-24T04:26:14.791Z,99570.44
2023-04-24T04:29:18.758Z,99582.03
2023-04-24T04:32:21.518Z,99586.06
2023-04-24T04:35:24.117Z,99586.59
2023-04-24T04:38:27.677Z,99593.19
2023-04-24T04:41:31.610Z,99591.59
2023-04-24T04:44:36.721Z,99592.78
2023-04-24T04:47:40.473Z,99595.84
2023-04-24T04:50:43.168Z,99595.00
2023-04-24T04:53:45.823Z,99592.25
2023-04-24T04:56:51.955Z,99597.22
2023-04-24T04:59:54.557Z,99591.59
2023-04-24T05:03:05.941Z,99589.25
2023-04-24T05:06:16.068Z,99581.59
2023-04-24T05:09:18.719Z,99586.22
2023-04-24T05:12:22.695Z,99583.47
2023-04-24T05:15:25.302Z,99585.53
2023-04-24T05:18:27.847Z,99594.78
2023-04-24T05:21:30.517Z,99593.66
2023-04-24T05:24:33.133Z,99591.28
2023-04-24T05:27:37.208Z,99592.47
2023-04-24T05:30:39.799Z,99592.47
2023-04-24T05:33:42.405Z,99590.13
2023-04-24T05:36:44.996Z,99593.41
2023-04-24T05:39:47.566Z,99595.66
2023-04-24T05:42:51.508Z,99599.94
2023-04-24T05:45:56.219Z,99598.44
2023-04-24T05:48:58.858Z,99606.09
2023-04-24T05:52:01.470Z,99597.59
2023-04-24T05:55:04.218Z,99604.41
2023-04-24T05:58:08.212Z,99594.84
2023-04-24T06:01:11.324Z,99595.75
2023-04-24T06:04:15.800Z,99598.56
2023-04-24T06:07:19.295Z,99609.53
2023-04-24T06:10:21.902Z,99610.38
2023-04-24T06:13:25.932Z,99611.66
2023-04-24T06:16:28.581Z,99609.31
2023-04-24T06:19:31.184Z,99610.63
2023-04-24T06:22:33.813Z,99611.22
2023-04-24T06:25:36.598Z,99614.09
2023-04-24T06:28:40.613Z,99614.66
2023-04-24T06:31:43.228Z,99618.19
2023-04-24T06:34:45.888Z,99615.41
2023-04-24T06:37:48.583Z,99618.56
2023-04-24T06:40:51.442Z,99624.72
2023-04-24T06:43:55.542Z,99621.03
2023-04-24T06:46:58.136Z,99618.25
2023-04-24T06:50:00.761Z,99612.09
2023-04-24T06:53:03.332Z,99618.44
2023-04-24T06:56:06.257Z,99618.19
2023-04-24T06:59:10.211Z,99611.19
2023-04-24T07:02:12.952Z,99619.97
2023-04-24T07:05:16.378Z,99611.66
2023-04-24T07:08:19.658Z,99610.81
2023-04-24T07:11:23.073Z,99612.81
2023-04-24T07:14:26.977Z,99622.06
2023-04-24T07:17:29.816Z,99615.75
2023-04-24T07:20:32.441Z,99621.09
2023-04-24T07:23:35.034Z,99633.66
2023-04-24T07:26:37.640Z,99621.97
2023-04-24T07:29:42.019Z,99624.41
2023-04-24T07:32:44.925Z,99620.50
2023-04-24T07:35:47.580Z,99617.75
2023-04-24T07:38:50.854Z,99614.13
2023-04-24T07:41:53.556Z,99626.16
2023-04-24T07:44:57.557Z,99629.19
2023-04-24T07:48:00.321Z,99630.06
2023-04-24T07:51:03.136Z,99637.72
2023-04-24T07:54:06.495Z,99639.88
2023-04-24T07:57:09.202Z,99643.03
2023-04-24T08:00:14.476Z,99639.06
2023-04-24T08:03:19.823Z,99638.78
2023-04-24T08:06:23.049Z,99640.72
2023-04-24T08:09:27.536Z,99651.78
2023-04-24T08:12:30.774Z,99658.16
2023-04-24T08:15:34.855Z,99645.66
2023-04-24T08:18:37.877Z,99642.97
2023-04-24T08:21:40.589Z,99650.81
2023-04-24T08:24:43.382Z,99666.09
2023-04-24T08:27:46.001Z,99661.41
2023-04-24T08:30:55.291Z,99666.38
2023-04-24T08:33:58.009Z,99681.13
2023-04-24T08:37:00.770Z,99668.25
2023-04-24T08:40:04.876Z,99673.00
2023-04-24T08:43:07.508Z,99668.84
2023-04-24T08:46:12.835Z,99672.53
2023-04-24T08:49:17.545Z,99666.38
2023-04-24T08:52:21.089Z,99673.41
2023-04-24T08:55:23.779Z,99665.44
2023-04-24T08:58:27.722Z,99666.25
2023-04-24T09:01:34.753Z,99676.03
2023-04-24T09:04:38.774Z,99679.63
2023-04-24T09:07:46.304Z,99686.16
2023-04-24T09:10:51.166Z,99687.06
2023-04-24T09:13:55.365Z,99693.84
2023-04-24T09:16:59.823Z,99699.25
2023-04-24T09:20:02.618Z,99694.91
2023-04-24T09:23:05.332Z,99693.88
2023-04-24T09:26:08.158Z,99698.22
2023-04-24T09:29:17.414Z,99699.06
2023-04-24T09:32:23.185Z,99711.63
2023-04-24T09:35:26.388Z,99695.38
2023-04-24T09:38:37.203Z,99698.31
2023-04-24T09:41:46.812Z,99703.50
2023-04-24T09:44:58.894Z,99704.72
2023-04-24T09:48:11.694Z,99707.19
2023-04-24T09:51:16.144Z,99712.09
2023-04-24T09:54:21.862Z,99693.44
2023-04-24T09:57:24.674Z,99684.97
2023-04-24T10:00:28.905Z,99707.22
2023-04-24T10:03:33.673Z,99697.47
2023-04-24T10:06:37.244Z,99702.47
2023-04-24T10:09:39.964Z,99706.84
2023-04-24T10:12:42.971Z,99700.91
2023-04-24T10:15:46.172Z,99705.72
2023-04-24T10:18:50.871Z,99703.63
2023-04-24T10:21:55.513Z,99698.69
2023-04-24T10:24:58.968Z,99707.91
2023-04-24T10:28:03.124Z,99714.94
2023-04-24T10:31:06.138Z,99713.22
2023-04-24T10:34:11.644Z,99712.78
2023-04-24T10:37:14.687Z,99711.22
2023-04-24T10:40:20.568Z,99710.16
2023-04-24T10:43:23.194Z,99711.75
2023-04-24T10:46:30.526Z,99707.41
2023-04-24T10:49:34.601Z,99716.22
2023-04-24T10:52:46.265Z,99721.16
2023-04-24T10:55:51.390Z,99721.44
2023-04-24T10:58:55.392Z,99722.38
2023-04-24T11:01:57.946Z,99707.16
2023-04-24T11:05:05.182Z,99713.94
2023-04-24T11:08:23.130Z,99714.81
2023-04-24T11:11:30.928Z,99709.50
2023-04-24T11:15:03.868Z,99717.22
2023-04-24T11:18:06.925Z,99711.59
2023-04-24T11:21:14.301Z,99713.13
2023-04-24T11:24:30.127Z,99705.09
2023-04-24T11:27:34.399Z,99709.19
2023-04-24T11:30:37.189Z,99714.53
2023-04-24T11:33:39.955Z,99708.97
2023-04-24T11:36:45.132Z,99709.13
2023-04-24T11:39:47.739Z,99712.50
2023-04-24T11:42:51.918Z,99713.44
2023-04-24T11:45:55.004Z,99718.13
2023-04-24T11:48:58.436Z,99714.75
2023-04-24T11:52:03.154Z,99715.47
2023-04-24T11:55:06.837Z,99707.25
2023-04-24T11:58:09.413Z,99706.63
2023-04-24T12:01:12.088Z,99706.09
2023-04-24T12:04:15.345Z,99713.81
2023-04-24T12:07:19.483Z,99711.84
2023-04-24T12:10:22.664Z,99701.75
2023-04-24T12:13:27.441Z,99705.63
2023-04-24T12:16:31.932Z,99699.94
2023-04-24T12:19:34.613Z,99715.50
2023-04-24T12:22:48.724Z,99699.75
2023-04-24T12:25:53.187Z,99706.75
2023-04-24T12:28:55.766Z,99703.13
2023-04-24T12:31:58.395Z,99713.13
2023-04-24T12:35:01.131Z,99713.81
2023-04-24T12:38:13.805Z,99705.59
2023-04-24T12:41:16.591Z,99710.84
2023-04-24T12:44:19.574Z,99711.53
2023-04-24T12:47:22.323Z,99711.53
2023-04-24T12:50:24.954Z,99712.84
2023-04-24T12:53:30.308Z,99724.25
2023-04-24T12:56:32.881Z,99718.63
2023-04-24T12:59:35.440Z,99723.34
2023-04-24T13:02:38.287Z,99726.63
2023-04-24T13:05:41.167Z,99729.34
2023-04-24T13:08:45.241Z,99727.81
2023-04-24T13:11:47.880Z,99735.06
2023-04-24T13:14:50.444Z,99729.88
2023-04-24T13:17:53.268Z,99729.88
2023-04-24T13:20:55.939Z,99724.72
2023-04-24T13:23:59.965Z,99727.91
2023-04-24T13:27:03.365Z,99737.28
2023-04-24T13:30:07.040Z,99734.81
2023-04-24T13:33:09.700Z,99735.69
2023-04-24T13:36:12.312Z,99737.66
2023-04-24T13:39:17.849Z,99731.56
2023-04-24T13:42:21.045Z,99733.41
2023-04-24T13:45:25.633Z,99730.66
2023-04-24T13:48:28.475Z,99732.53
2023-04-24T13:51:31.632Z,99727.22
2023-04-24T13:54:35.580Z,99731.69
2023-04-24T13:57:38.209Z,99726.81
2023-04-24T14:00:41.142Z,99721.03
2023-04-24T14:03:44.847Z,99719.00
2023-04-24T14:06:47.855Z,99713.69
2023-04-24T14:09:51.795Z,99718.38
2023-04-24T14:12:54.978Z,99718.59
2023-04-24T14:15:57.704Z,99711.44
2023-04-24T14:19:00.400Z,99709.25
2023-04-24T14:22:03.018Z,99716.09
2023-04-24T14:25:08.611Z,99713.31
2023-04-24T14:28:11.301Z,99702.06
2023-04-24T14:31:13.938Z,99703.81
2023-04-24T14:34:16.599Z,99699.00
2023-04-24T14:37:19.240Z,99704.88
2023-04-24T14:40:48.368Z,99710.03
2023-04-24T14:43:46.093Z,99708.16
2023-04-24T14:46:50.743Z,99697.88
2023-04-24T14:49:53.463Z,99723.56
2023-04-24T14:52:58.258Z,99705.38
2023-04-24T14:56:02.211Z,99717.78
2023-04-24T14:59:04.997Z,99716.72
2023-04-24T15:02:15.962Z,99720.09
2023-04-24T15:05:20.208Z,99718.22
2023-04-24T15:08:22.978Z,99725.81
2023-04-24T15:11:27.045Z,99730.28
2023-04-24T15:14:29.683Z,99743.50
2023-04-24T15:17:32.328Z,99747.63
2023-04-24T15:20:38.005Z,99758.84
2023-04-24T15:23:41.294Z,99767.94
2023-04-24T15:26:45.540Z,99772.88
2023-04-24T15:29:48.223Z,99787.28
2023-04-24T15:32:51.071Z,99785.66
2023-04-24T15:35:53.751Z,99789.19
2023-04-24T15:38:56.350Z,99801.31
2023-04-24T15:42:01.268Z,99801.16
2023-04-24T15:45:04.318Z,99812.72
2023-04-24T15:48:07.156Z,99824.19
2023-04-24T15:51:09.860Z,99824.44
2023-04-24T15:54:12.461Z,99826.50
2023-04-24T15:57:16.759Z,99825.19
2023-04-24T16:00:20.194Z,99830.50
2023-04-24T16:03:23.238Z,99833.75
2023-04-24T16:06:27.698Z,99842.41
2023-04-24T16:09:30.384Z,99849.78
2023-04-24T16:12:34.635Z,99863.47
2023-04-24T16:15:37.393Z,99875.72
2023-04-24T16:18:40.041Z,99884.16
2023-04-24T16:21:42.642Z,99888.41
2023-04-24T16:24:47.735Z,99895.66
2023-04-24T16:27:52.685Z,99894.50
2023-04-24T16:30:55.361Z,99909.78
2023-04-24T16:33:57.992Z,99919.34
2023-04-24T16:37:00.561Z,99924.50
2023-04-24T16:40:04.577Z,99928.75
2023-04-24T16:43:08.512Z,99936.25
2023-04-24T16:46:11.450Z,99940.38
2023-04-24T16:49:14.056Z,99949.19
2023-04-24T16:52:16.638Z,99952.72
2023-04-24T16:55:19.336Z,99949.94
2023-04-24T16:58:23.253Z,99966.38
2023-04-24T17:01:26.018Z,99969.13
2023-04-24T17:04:28.817Z,99964.69
2023-04-24T17:07:31.891Z,99975.91
2023-04-24T17:10:34.491Z,99975.66
2023-04-24T17:13:38.526Z,99975.94
2023-04-24T17:16:41.353Z,99982.34
2023-04-24T17:19:43.976Z,99980.66
2023-04-24T17:22:46.677Z,99991.28
2023-04-24T17:25:49.912Z,99983.22
2023-04-24T17:28:55.080Z,99986.78
2023-04-24T17:31:58.862Z,99985.44
2023-04-24T17:35:02.033Z,99974.44
2023-04-24T17:38:04.627Z,99971.25
2023-04-24T17:41:07.297Z,99972.97
2023-04-24T17:44:11.223Z,99983.25
2023-04-24T17:47:13.852Z,99983.28
2023-04-24T17:50:16.620Z,99979.84
2023-04-24T17:53:19.867Z,99981.00
2023-04-24T17:56:24.874Z,99976.72
2023-04-24T17:59:28.817Z,99979.84
2023-04-24T18:02:31.563Z,99984.34
2023-04-24T18:05:36.004Z,99983.25
2023-04-24T18:08:38.608Z,99983.59
2023-04-24T18:11:42.586Z,99981.72
2023-04-24T18:14:46.617Z,99989.03
2023-04-24T18:17:49.323Z,99990.91
2023-04-24T18:20:52.040Z,99990.28
2023-04-24T18:23:55.106Z,99990.53
2023-04-24T18:26:57.816Z,99997.16
2023-04-24T18:30:02.630Z,99989.56
2023-04-24T18:33:05.680Z,99993.56
2023-04-24T18:36:08.329Z,99994.44
2023-04-24T18:39:10.919Z,99989.25
2023-04-24T18:42:13.529Z,99995.84
2023-04-24T18:45:17.510Z,100007.56
2023-04-24T18:48:20.244Z,100016.44
2023-04-24T18:51:23.192Z,100015.41
2023-04-24T18:54:25.932Z,100014.66
2023-04-24T18:57:28.518Z,100019.47
2023-04-24T19:00:32.530Z,100025.22
2023-04-24T19:03:35.746Z,100029.81
2023-04-24T19:06:38.513Z,100025.41
2023-04-24T19:09:41.083Z,100032.63
2023-04-24T19:12:43.693Z,100038.78
2023-04-24T19:15:47.648Z,100039.19
2023-04-24T19:18:50.425Z,100038.50
2023-04-24T19:21:53.180Z,100041.72
2023-04-24T19:24:58.262Z,100045.91
2023-04-24T19:28:00.874Z,100040.34
2023-04-24T19:31:04.866Z,100042.00
2023-04-24T19:34:07.606Z,100037.69
2023-04-24T19:37:10.231Z,100050.31
2023-04-24T19:40:13.713Z,100041.50
2023-04-24T19:43:16.308Z,100048.72
2023-04-24T19:46:20.853Z,100047.13
2023-04-24T19:49:23.531Z,100047.84
2023-04-24T19:52:26.123Z,100040.41
2023-04-24T19:55:28.911Z,100046.28
2023-04-24T19:58:31.522Z,100042.66
2023-04-24T20:01:35.639Z,100046.56
2023-04-24T20:04:38.518Z,100041.72
2023-04-24T20:07:41.392Z,100040.97
2023-04-24T20:10:45.718Z,100028.84
2023-04-24T20:13:48.282Z,100038.09
2023-04-24T20:16:54.143Z,100033.03
2023-04-24T20:19:56.776Z,100033.34
2023-04-24T20:22:59.442Z,100030.03
2023-04-24T20:26:02.058Z,100035.00
2023-04-24T20:29:05.493Z,100031.84
2023-04-24T20:32:09.494Z,100042.72
2023-04-24T20:35:12.928Z,100043.13
2023-04-24T20:38:15.558Z,100044.28
2023-04-24T20:41:19.373Z,100045.94
2023-04-24T20:44:22.021Z,100044.56
2023-04-24T20:47:26.181Z,100049.09
2023-04-24T20:50:28.920Z,100053.16
2023-04-24T20:53:31.490Z,100040.22
2023-04-24T20:56:34.164Z,100041.16
2023-04-24T20:59:36.786Z,100050.59
2023-04-24T21:02:40.789Z,100045.84
2023-04-24T21:05:43.870Z,100046.44
2023-04-24T21:08:46.478Z,100051.72
2023-04-24T21:11:49.062Z,100051.09
2023-04-24T21:14:51.740Z,100061.97
2023-04-24T21:17:55.822Z,100057.59
2023-04-24T21:20:58.441Z,100058.25
2023-04-24T21:24:04.129Z,100060.28
2023-04-24T21:27:07.332Z,100054.72
2023-04-24T21:30:11.204Z,100063.59
2023-04-24T21:33:15.460Z,100062.28
2023-04-24T21:36:18.032Z,100062.94
2023-04-24T21:39:20.953Z,100053.44
2023-04-24T21:42:23.576Z,100064.31
2023-04-24T21:45:26.540Z,100062.03
2023-04-24T21:48:30.564Z,100069.69
2023-04-24T21:51:33.750Z,100077.53
2023-04-24T21:54:36.336Z,100065.53
2023-04-24T21:57:39.009Z,100067.44
2023-04-24T22:00:41.609Z,100076.31
2023-04-24T22:03:45.727Z,100074.75
2023-04-24T22:06:48.586Z,100078.31
2023-04-24T22:09:51.277Z,100079.09
2023-04-24T22:12:53.933Z,100074.34
2023-04-24T22:15:56.726Z,100076.63
2023-04-24T22:19:00.702Z,100071.03
2023-04-24T22:22:03.520Z,100073.09
2023-04-24T22:25:07.143Z,100073.19
2023-04-24T22:28:09.716Z,100072.16
2023-04-24T22:31:12.368Z,100076.19
2023-04-24T22:34:16.994Z,100069.88
2023-04-24T22:37:19.572Z,100064.16
2023-04-24T22:40:22.400Z,100065.66
2023-04-24T22:43:25.117Z,100066.31
2023-04-24T22:46:27.925Z,100071.13
2023-04-24T22:49:33.966Z,100070.59
2023-04-24T22:52:36.653Z,100073.19
2023-04-24T22:55:39.276Z,100080.47
2023-04-24T22:58:42.044Z,100074.03
2023-04-24T23:01:44.690Z,100070.81
2023-04-24T23:04:49.195Z,100070.75
2023-04-24T23:07:51.939Z,100072.63
2023-04-24T23:10:54.543Z,100078.78
2023-04-24T23:13:57.716Z,100076.81
2023-04-24T23:17:00.399Z,100080.00
2023-04-24T23:20:05.494Z,100066.88
2023-04-24T23:23:08.140Z,100076.03
2023-04-24T23:26:10.739Z,100075.22
2023-04-24T23:29:13.342Z,100071.44
2023-04-24T23:32:16.146Z,100078.13
2023-04-24T23:35:20.122Z,100077.47
2023-04-24T23:38:22.752Z,100074.16
2023-04-24T23:41:25.426Z,100074.16
2023-04-24T23:44:28.911Z,100069.91
2023-04-24T23:47:31.585Z,100068.41
2023-04-24T23:50:35.646Z,100071.41
2023-04-24T23:53:38.278Z,100084.69
2023-04-24T23:56:40.879Z,100080.75
2023-04-24T23:59:43.508Z,100078.97
